createdAt,value
2019-06-07T00:00:33.510Z,93.29
2019-06-07T00:01:20.779Z,93.29
2019-06-07T00:02:18.858Z,93.29
2019-06-07T00:03:27.403Z,93.29
2019-06-07T00:04:21.329Z,93.50
2019-06-07T00:05:19.852Z,93.40
2019-06-07T00:06:24.333Z,93.65
2019-06-07T00:07:21.717Z,93.50
2019-06-07T00:08:25.051Z,93.29
2019-06-07T00:09:22.440Z,93.24
2019-06-07T00:10:35.237Z,93.13
2019-06-07T00:11:20.711Z,93.09
2019-06-07T00:12:21.401Z,93.24
2019-06-07T00:13:20.213Z,93.54
2019-06-07T00:14:18.833Z,93.13
2019-06-07T00:15:26.584Z,93.44
2019-06-07T00:16:22.732Z,93.24
2019-06-07T00:17:19.975Z,93.74
2019-06-07T00:18:25.347Z,93.44
2019-06-07T00:19:19.031Z,93.44
2019-06-07T00:20:23.077Z,94.36
2019-06-07T00:21:20.492Z,94.15
2019-06-07T00:22:30.036Z,93.99
2019-06-07T00:23:22.463Z,94.10
2019-06-07T00:24:19.340Z,93.99
2019-06-07T00:25:23.779Z,93.95
2019-06-07T00:26:21.308Z,93.99
2019-06-07T00:27:20.598Z,93.95
2019-06-07T00:28:18.791Z,94.60
2019-06-07T00:29:19.561Z,94.71
2019-06-07T00:30:40.086Z,94.60
2019-06-07T00:31:24.012Z,94.51
2019-06-07T00:32:22.028Z,94.10
2019-06-07T00:33:21.652Z,94.60
2019-06-07T00:34:20.060Z,94.40
2019-06-07T00:35:20.570Z,94.10
2019-06-07T00:36:18.312Z,93.99
2019-06-07T00:37:20.616Z,94.51
2019-06-07T00:38:20.462Z,94.40
2019-06-07T00:39:21.833Z,94.26
2019-06-07T00:40:27.416Z,94.30
2019-06-07T00:41:20.228Z,94.51
2019-06-07T00:42:20.906Z,94.20
2019-06-07T00:43:24.833Z,94.40
2019-06-07T00:44:21.561Z,94.10
2019-06-07T00:45:20.631Z,94.10
2019-06-07T00:46:18.815Z,94.20
2019-06-07T00:47:21.776Z,94.20
2019-06-07T00:48:27.457Z,94.10
2019-06-07T00:49:32.344Z,94.10
2019-06-07T00:50:21.031Z,94.14
2019-06-07T00:51:19.595Z,94.04
2019-06-07T00:53:07.987Z,94.04
2019-06-07T00:53:29.101Z,94.45
2019-06-07T00:54:21.489Z,94.55
2019-06-07T00:55:19.595Z,94.45
2019-06-07T00:56:20.265Z,94.45
2019-06-07T00:57:19.364Z,94.45
2019-06-07T00:58:20.904Z,94.55
2019-06-07T00:59:21.233Z,94.14
2019-06-07T01:00:22.356Z,94.34
2019-06-07T01:01:20.934Z,94.75
2019-06-07T01:02:20.913Z,94.65
2019-06-07T01:03:18.082Z,94.65
2019-06-07T01:04:19.376Z,94.65
2019-06-07T01:05:20.307Z,94.75
2019-06-07T01:06:21.329Z,94.75
2019-06-07T01:07:18.788Z,95.06
2019-06-07T01:08:20.027Z,94.70
2019-06-07T01:09:20.275Z,94.80
2019-06-07T01:10:34.572Z,94.80
2019-06-07T01:11:20.523Z,94.49
2019-06-07T01:12:19.396Z,94.59
2019-06-07T01:13:18.833Z,94.80
2019-06-07T01:14:20.359Z,95.06
2019-06-07T01:15:22.201Z,94.80
2019-06-07T01:16:18.765Z,95.37
2019-06-07T01:17:27.742Z,95.51
2019-06-07T01:18:38.191Z,95.62
2019-06-07T01:19:18.897Z,95.62
2019-06-07T01:20:19.160Z,95.31
2019-06-07T01:21:21.715Z,95.41
2019-06-07T01:22:19.745Z,95.57
2019-06-07T01:23:56.614Z,95.62
2019-06-07T01:24:17.902Z,95.41
2019-06-07T01:25:18.323Z,95.41
2019-06-07T01:26:20.515Z,95.21
2019-06-07T01:27:18.408Z,95.41
2019-06-07T01:28:20.593Z,95.62
2019-06-07T01:29:19.554Z,95.62
2019-06-07T01:30:18.617Z,95.41
2019-06-07T01:31:19.273Z,95.62
2019-06-07T01:32:17.522Z,95.51
2019-06-07T01:33:18.288Z,95.62
2019-06-07T01:34:18.251Z,95.41
2019-06-07T01:35:20.060Z,95.21
2019-06-07T01:36:18.244Z,95.51
2019-06-07T01:37:17.496Z,95.51
2019-06-07T01:38:17.853Z,95.41
2019-06-07T01:39:16.742Z,95.41
2019-06-07T01:40:17.765Z,95.31
2019-06-07T01:41:17.334Z,95.72
2019-06-07T01:42:18.147Z,95.72
2019-06-07T01:43:17.074Z,95.41
2019-06-07T01:44:18.540Z,95.62
2019-06-07T01:45:18.403Z,95.76
2019-06-07T01:46:18.132Z,95.00
2019-06-07T01:47:17.849Z,95.00
2019-06-07T01:48:19.786Z,94.80
2019-06-07T01:49:17.131Z,94.49
2019-06-07T01:50:17.129Z,94.80
2019-06-07T01:51:18.943Z,94.49
2019-06-07T01:52:16.685Z,94.59
2019-06-07T01:53:18.616Z,94.49
2019-06-07T01:55:18.956Z,94.54
2019-06-07T01:56:18.532Z,94.59
2019-06-07T01:57:35.175Z,94.49
2019-06-07T01:58:17.569Z,94.59
2019-06-07T01:59:17.777Z,94.33
2019-06-07T02:00:17.384Z,94.59
2019-06-07T02:01:19.169Z,94.64
2019-06-07T02:02:17.751Z,94.29
2019-06-07T02:03:18.370Z,94.43
2019-06-07T02:04:19.223Z,94.49
2019-06-07T02:05:19.126Z,94.23
2019-06-07T02:06:16.461Z,94.43
2019-06-07T02:07:16.416Z,94.64
2019-06-07T02:08:16.407Z,94.43
2019-06-07T02:09:16.396Z,94.33
2019-06-07T02:10:16.394Z,94.54
2019-06-07T02:11:18.035Z,94.64
2019-06-07T02:12:25.818Z,94.64
2019-06-07T02:13:17.347Z,94.64
2019-06-07T02:14:16.361Z,94.43
2019-06-07T02:15:16.349Z,94.12
2019-06-07T02:16:16.316Z,94.43
2019-06-07T02:17:16.304Z,94.43
2019-06-07T02:18:16.316Z,94.17
2019-06-07T02:19:16.282Z,94.27
2019-06-07T02:20:16.272Z,94.58
2019-06-07T02:21:16.339Z,94.37
2019-06-07T02:22:16.247Z,94.12
2019-06-07T02:23:16.239Z,94.64
2019-06-07T02:24:16.226Z,94.37
2019-06-07T02:25:37.238Z,94.27
2019-06-07T02:26:17.223Z,94.27
2019-06-07T02:27:16.191Z,94.21
2019-06-07T02:28:44.264Z,94.37
2019-06-07T02:29:17.168Z,94.37
2019-06-07T02:31:17.146Z,94.48
2019-06-07T02:32:16.159Z,94.07
2019-06-07T02:33:16.127Z,94.37
2019-06-07T02:34:16.113Z,94.32
2019-06-07T02:35:16.122Z,94.62
2019-06-07T02:36:16.089Z,94.93
2019-06-07T02:37:16.103Z,94.42
2019-06-07T02:38:16.155Z,94.83
2019-06-07T02:39:16.248Z,94.83
2019-06-07T02:40:16.054Z,94.62
2019-06-07T02:41:16.040Z,94.73
2019-06-07T02:42:16.046Z,94.73
2019-06-07T02:43:16.014Z,94.73
2019-06-07T02:44:15.999Z,94.73
2019-06-07T02:45:15.990Z,94.73
2019-06-07T02:46:26.504Z,94.46
2019-06-07T02:47:16.999Z,94.21
2019-06-07T02:48:15.955Z,94.21
2019-06-07T02:49:15.948Z,94.73
2019-06-07T02:50:15.932Z,94.52
2019-06-07T02:51:15.944Z,94.83
2019-06-07T02:52:15.908Z,94.93
2019-06-07T02:53:15.897Z,95.24
2019-06-07T02:54:15.887Z,95.14
2019-06-07T02:55:15.878Z,94.83
2019-06-07T02:57:16.891Z,95.03
2019-06-07T02:58:15.933Z,94.98
2019-06-07T02:59:15.830Z,94.73
2019-06-07T03:00:41.207Z,94.56
2019-06-07T03:01:16.832Z,94.67
2019-06-07T03:02:15.798Z,94.56
2019-06-07T03:03:15.817Z,94.46
2019-06-07T03:04:17.060Z,94.67
2019-06-07T03:05:15.784Z,94.77
2019-06-07T03:06:15.753Z,94.87
2019-06-07T03:07:15.749Z,94.98
2019-06-07T03:08:15.728Z,94.77
2019-06-07T03:09:15.717Z,94.67
2019-06-07T03:10:15.731Z,94.77
2019-06-07T03:11:15.694Z,94.81
2019-06-07T03:12:15.684Z,94.98
2019-06-07T03:13:15.693Z,94.61
2019-06-07T03:14:15.661Z,94.46
2019-06-07T03:15:32.044Z,94.61
2019-06-07T03:16:16.636Z,94.67
2019-06-07T03:17:15.649Z,94.71
2019-06-07T03:18:15.637Z,94.92
2019-06-07T03:19:15.602Z,94.40
2019-06-07T03:20:15.595Z,95.07
2019-06-07T03:21:15.686Z,94.67
2019-06-07T03:22:15.590Z,94.87
2019-06-07T03:23:15.562Z,94.71
2019-06-07T03:24:15.570Z,94.71
2019-06-07T03:25:15.540Z,94.98
2019-06-07T03:26:15.524Z,94.71
2019-06-07T03:27:36.149Z,94.61
2019-06-07T03:28:16.505Z,94.61
2019-06-07T03:29:15.490Z,94.51
2019-06-07T03:31:16.474Z,94.81
2019-06-07T03:32:15.483Z,94.77
2019-06-07T03:33:15.473Z,94.87
2019-06-07T03:34:15.438Z,95.28
2019-06-07T03:35:15.423Z,94.77
2019-06-07T03:36:23.713Z,95.02
2019-06-07T03:37:16.401Z,95.02
2019-06-07T03:38:15.404Z,95.02
2019-06-07T03:39:15.394Z,95.28
2019-06-07T03:40:15.385Z,95.18
2019-06-07T03:41:15.369Z,94.92
2019-06-07T03:42:15.358Z,95.18
2019-06-07T03:43:15.356Z,94.92
2019-06-07T03:44:15.320Z,95.39
2019-06-07T03:45:15.309Z,94.87
2019-06-07T03:46:15.319Z,95.39
2019-06-07T03:47:15.287Z,95.28
2019-06-07T03:48:15.276Z,94.87
2019-06-07T03:49:15.267Z,94.98
2019-06-07T03:50:15.277Z,94.77
2019-06-07T03:51:24.886Z,94.56
2019-06-07T03:52:16.229Z,94.36
2019-06-07T03:53:15.220Z,94.67
2019-06-07T03:54:15.209Z,94.83
2019-06-07T03:55:15.200Z,94.77
2019-06-07T03:56:15.775Z,94.36
2019-06-07T03:57:15.176Z,94.62
2019-06-07T03:58:31.185Z,94.62
2019-06-07T03:59:16.149Z,94.42
2019-06-07T04:00:15.144Z,94.21
2019-06-07T04:01:15.157Z,94.42
2019-06-07T04:02:15.117Z,94.21
2019-06-07T04:03:32.922Z,93.39
2019-06-07T04:04:16.094Z,93.29
2019-06-07T04:05:15.086Z,93.74
2019-06-07T04:06:15.094Z,93.60
2019-06-07T04:07:15.068Z,93.80
2019-06-07T04:08:15.050Z,93.80
2019-06-07T04:09:15.060Z,93.60
2019-06-07T04:10:15.027Z,93.70
2019-06-07T04:11:15.014Z,93.80
2019-06-07T04:12:15.006Z,93.80
2019-06-07T04:13:15.022Z,93.60
2019-06-07T04:14:15.018Z,93.60
2019-06-07T04:15:14.981Z,93.70
2019-06-07T04:16:14.963Z,93.49
2019-06-07T04:17:14.967Z,92.98
2019-06-07T04:18:14.968Z,93.04
2019-06-07T04:19:14.938Z,93.25
2019-06-07T04:20:14.917Z,92.94
2019-06-07T04:21:14.923Z,92.43
2019-06-07T04:22:14.904Z,92.74
2019-06-07T04:23:27.636Z,92.43
2019-06-07T04:24:15.904Z,92.12
2019-06-07T04:25:14.874Z,93.35
2019-06-07T04:26:14.878Z,92.63
2019-06-07T04:27:14.835Z,93.25
2019-06-07T04:28:14.830Z,92.74
2019-06-07T04:29:33.947Z,92.79
2019-06-07T04:30:15.833Z,92.94
2019-06-07T04:31:14.793Z,92.90
2019-06-07T04:32:14.785Z,92.90
2019-06-07T04:33:14.772Z,92.79
2019-06-07T04:34:14.800Z,93.26
2019-06-07T04:35:14.752Z,92.65
2019-06-07T04:36:14.750Z,92.44
2019-06-07T04:37:14.732Z,92.85
2019-06-07T04:38:14.724Z,92.65
2019-06-07T04:39:14.728Z,92.55
2019-06-07T04:40:14.688Z,92.55
2019-06-07T04:41:14.677Z,92.96
2019-06-07T04:42:14.665Z,92.55
2019-06-07T04:43:14.655Z,92.40
2019-06-07T04:44:14.667Z,92.40
2019-06-07T04:45:33.217Z,92.25
2019-06-07T04:46:15.618Z,92.36
2019-06-07T04:47:14.610Z,92.36
2019-06-07T04:48:14.598Z,91.33
2019-06-07T04:49:14.610Z,91.44
2019-06-07T04:50:14.577Z,91.91
2019-06-07T04:51:14.761Z,91.70
2019-06-07T04:52:14.555Z,92.21
2019-06-07T04:53:14.544Z,91.70
2019-06-07T04:54:14.551Z,91.50
2019-06-07T04:55:14.522Z,91.50
2019-06-07T04:56:14.510Z,91.39
2019-06-07T04:57:14.557Z,91.80
2019-06-07T04:58:14.486Z,91.39
2019-06-07T05:00:00.432Z,90.99
2019-06-07T05:00:46.715Z,91.05
2019-06-07T05:01:26.974Z,90.99
2019-06-07T05:02:15.438Z,91.09
2019-06-07T05:03:14.433Z,90.47
2019-06-07T05:04:14.418Z,90.84
2019-06-07T05:05:14.431Z,90.74
2019-06-07T05:06:14.400Z,91.35
2019-06-07T05:07:14.384Z,90.94
2019-06-07T05:08:27.511Z,90.74
2019-06-07T05:09:15.361Z,90.33
2019-06-07T05:10:14.373Z,90.39
2019-06-07T05:11:14.339Z,90.80
2019-06-07T05:12:14.328Z,90.80
2019-06-07T05:13:14.339Z,89.84
2019-06-07T05:14:14.308Z,89.73
2019-06-07T05:15:14.317Z,89.53
2019-06-07T05:16:14.284Z,89.49
2019-06-07T05:17:14.273Z,89.69
2019-06-07T05:18:14.260Z,89.18
2019-06-07T05:19:14.251Z,88.22
2019-06-07T05:20:14.254Z,87.06
2019-06-07T05:21:14.226Z,85.31
2019-06-07T05:22:14.215Z,83.91
2019-06-07T05:23:59.499Z,82.04
2019-06-07T05:24:15.190Z,80.88
2019-06-07T05:25:14.201Z,79.22
2019-06-07T05:26:14.170Z,79.38
2019-06-07T05:27:14.158Z,78.44
2019-06-07T05:28:14.147Z,78.13
2019-06-07T05:29:14.159Z,77.32
2019-06-07T05:30:50.989Z,76.61
2019-06-07T05:31:15.110Z,76.78
2019-06-07T05:32:14.247Z,76.06
2019-06-07T05:33:14.158Z,75.52
2019-06-07T05:34:14.080Z,76.74
2019-06-07T05:35:14.067Z,77.25
2019-06-07T05:36:14.059Z,78.16
2019-06-07T05:37:14.060Z,77.75
2019-06-07T05:38:14.033Z,77.79
2019-06-07T05:39:14.107Z,77.59
2019-06-07T05:40:14.026Z,77.62
2019-06-07T05:41:14.022Z,78.64
2019-06-07T05:42:14.023Z,78.94
2019-06-07T05:43:13.976Z,78.53
2019-06-07T05:44:15.204Z,78.06
2019-06-07T05:45:13.969Z,79.22
2019-06-07T05:46:13.944Z,80.94
2019-06-07T05:47:13.931Z,80.24
2019-06-07T05:48:14.136Z,80.24
2019-06-07T05:49:13.908Z,80.84
2019-06-07T05:50:38.464Z,81.76
2019-06-07T05:51:14.884Z,82.37
2019-06-07T05:52:13.875Z,82.26
2019-06-07T05:53:13.865Z,81.76
2019-06-07T05:54:13.875Z,81.66
2019-06-07T05:55:13.841Z,80.64
2019-06-07T05:56:14.708Z,80.74
2019-06-07T05:57:13.817Z,80.88
2019-06-07T05:58:13.807Z,81.09
2019-06-07T05:59:13.827Z,81.59
2019-06-07T06:00:13.806Z,80.74
2019-06-07T06:01:42.194Z,80.24
2019-06-07T06:02:22.599Z,81.09
2019-06-07T06:03:14.750Z,81.70
2019-06-07T06:04:13.761Z,81.96
2019-06-07T06:05:32.578Z,81.05
2019-06-07T06:06:14.716Z,80.84
2019-06-07T06:07:13.705Z,80.44
2019-06-07T06:08:13.714Z,80.13
2019-06-07T06:09:14.374Z,82.10
2019-06-07T06:10:13.672Z,80.98
2019-06-07T06:11:13.682Z,81.05
2019-06-07T06:12:13.650Z,80.94
2019-06-07T06:13:13.638Z,80.37
2019-06-07T06:14:13.643Z,79.77
2019-06-07T06:15:13.637Z,80.64
2019-06-07T06:16:13.606Z,82.33
2019-06-07T06:17:13.596Z,82.23
2019-06-07T06:18:13.583Z,82.09
2019-06-07T06:19:13.583Z,81.24
2019-06-07T06:20:13.945Z,80.46
2019-06-07T06:21:19.124Z,79.96
2019-06-07T06:22:14.535Z,80.53
2019-06-07T06:23:13.551Z,80.73
2019-06-07T06:24:13.557Z,79.61
2019-06-07T06:25:32.328Z,79.61
2019-06-07T06:26:14.490Z,79.27
2019-06-07T06:27:41.712Z,78.36
2019-06-07T06:28:16.048Z,79.27
2019-06-07T06:29:13.461Z,78.40
2019-06-07T06:30:13.448Z,78.60
2019-06-07T06:31:13.436Z,80.12
2019-06-07T06:32:41.259Z,79.21
2019-06-07T06:33:30.828Z,78.80
2019-06-07T06:34:14.430Z,78.91
2019-06-07T06:35:13.408Z,80.49
2019-06-07T06:36:13.380Z,78.87
2019-06-07T06:37:13.369Z,78.70
2019-06-07T06:38:13.358Z,79.82
2019-06-07T06:39:13.347Z,79.31
2019-06-07T06:40:13.360Z,78.70
2019-06-07T06:41:16.152Z,79.38
2019-06-07T06:42:13.310Z,78.77
2019-06-07T06:43:13.303Z,78.77
2019-06-07T06:44:13.289Z,78.63
2019-06-07T06:45:13.301Z,78.42
2019-06-07T06:46:13.266Z,77.21
2019-06-07T06:47:13.254Z,77.41
2019-06-07T06:48:13.242Z,77.92
2019-06-07T06:49:13.298Z,77.37
2019-06-07T06:50:13.256Z,77.01
2019-06-07T06:51:13.212Z,77.07
2019-06-07T06:52:13.198Z,77.17
2019-06-07T06:53:13.185Z,77.58
2019-06-07T06:54:13.176Z,77.17
2019-06-07T06:55:13.186Z,77.28
2019-06-07T06:56:13.153Z,77.37
2019-06-07T06:57:19.773Z,77.84
2019-06-07T06:58:14.134Z,78.05
2019-06-07T06:59:37.170Z,79.26
2019-06-07T07:00:14.109Z,78.52
2019-06-07T07:01:13.097Z,77.30
2019-06-07T07:02:13.084Z,75.85
2019-06-07T07:04:14.084Z,74.23
2019-06-07T07:05:13.071Z,74.33
2019-06-07T07:06:26.030Z,75.04
2019-06-07T07:07:14.028Z,74.84
2019-06-07T07:08:13.050Z,75.34
2019-06-07T07:09:13.006Z,75.75
2019-06-07T07:10:13.021Z,75.61
2019-06-07T07:11:13.014Z,75.41
2019-06-07T07:12:14.990Z,75.07
2019-06-07T07:13:12.984Z,75.27
2019-06-07T07:14:13.103Z,73.15
2019-06-07T07:15:12.938Z,72.75
2019-06-07T07:16:12.954Z,73.46
2019-06-07T07:17:12.918Z,72.95
2019-06-07T07:18:12.927Z,76.39
2019-06-07T07:19:12.893Z,76.39
2019-06-07T07:20:12.883Z,73.25
2019-06-07T07:21:12.896Z,72.85
2019-06-07T07:22:12.859Z,72.85
2019-06-07T07:23:12.849Z,71.84
2019-06-07T07:24:21.539Z,73.46
2019-06-07T07:25:13.824Z,75.04
2019-06-07T07:26:12.836Z,75.10
2019-06-07T07:27:12.804Z,75.71
2019-06-07T07:28:12.792Z,72.75
2019-06-07T07:29:12.783Z,72.17
2019-06-07T07:31:13.785Z,72.81
2019-06-07T07:32:12.750Z,72.67
2019-06-07T07:33:12.738Z,70.97
2019-06-07T07:34:31.870Z,71.64
2019-06-07T07:35:13.727Z,71.36
2019-06-07T07:36:28.466Z,68.91
2019-06-07T07:37:13.690Z,67.78
2019-06-07T07:38:12.680Z,67.88
2019-06-07T07:39:12.680Z,67.18
2019-06-07T07:40:55.558Z,66.97
2019-06-07T07:41:15.645Z,64.66
2019-06-07T07:42:20.599Z,65.56
2019-06-07T07:43:13.622Z,66.77
2019-06-07T07:44:12.612Z,68.21
2019-06-07T07:45:12.601Z,66.10
2019-06-07T07:46:29.425Z,67.21
2019-06-07T07:47:13.577Z,65.97
2019-06-07T07:48:17.651Z,64.87
2019-06-07T07:49:13.557Z,65.41
2019-06-07T07:50:12.570Z,63.84
2019-06-07T07:51:12.565Z,63.04
2019-06-07T07:52:12.521Z,60.38
2019-06-07T07:53:12.556Z,59.98
2019-06-07T07:54:12.503Z,60.41
2019-06-07T07:55:12.511Z,60.16
2019-06-07T07:56:12.518Z,60.97
2019-06-07T07:57:12.468Z,57.83
2019-06-07T07:58:12.463Z,59.70
2019-06-07T07:59:12.447Z,59.39
2019-06-07T08:00:49.632Z,61.74
2019-06-07T08:01:13.449Z,61.47
2019-06-07T08:02:12.445Z,61.44
2019-06-07T08:03:12.412Z,59.08
2019-06-07T08:04:12.392Z,58.58
2019-06-07T08:05:22.577Z,59.48
2019-06-07T08:06:13.366Z,62.02
2019-06-07T08:07:12.380Z,60.15
2019-06-07T08:08:12.346Z,62.82
2019-06-07T08:09:12.607Z,57.35
2019-06-07T08:10:12.323Z,59.18
2019-06-07T08:11:13.030Z,59.48
2019-06-07T08:12:12.304Z,57.80
2019-06-07T08:13:24.375Z,60.98
2019-06-07T08:14:13.297Z,60.10
2019-06-07T08:15:12.265Z,57.02
2019-06-07T08:16:16.756Z,57.90
2019-06-07T08:17:13.240Z,59.39
2019-06-07T08:18:12.232Z,61.86
2019-06-07T08:19:13.105Z,61.41
2019-06-07T08:20:12.234Z,63.22
2019-06-07T08:21:24.804Z,63.17
2019-06-07T08:22:13.185Z,62.30
2019-06-07T08:23:12.190Z,64.51
2019-06-07T08:24:12.165Z,60.74
2019-06-07T08:25:12.175Z,60.14
2019-06-07T08:26:12.142Z,60.61
2019-06-07T08:27:25.930Z,59.91
2019-06-07T08:28:13.116Z,59.58
2019-06-07T08:29:12.120Z,60.62
2019-06-07T08:30:46.403Z,60.62
2019-06-07T08:31:13.110Z,59.95
2019-06-07T08:32:12.071Z,59.68
2019-06-07T08:33:25.835Z,60.77
2019-06-07T08:34:13.049Z,61.90
2019-06-07T08:35:12.039Z,62.70
2019-06-07T08:36:21.834Z,61.67
2019-06-07T08:37:13.035Z,63.54
2019-06-07T08:38:26.950Z,64.25
2019-06-07T08:39:12.997Z,61.97
2019-06-07T08:40:11.984Z,64.31
2019-06-07T08:41:12.843Z,61.82
2019-06-07T08:42:21.251Z,59.44
2019-06-07T08:43:20.236Z,58.71
2019-06-07T08:44:23.273Z,57.18
2019-06-07T08:45:12.947Z,58.14
2019-06-07T08:46:11.915Z,57.89
2019-06-07T08:47:19.953Z,58.42
2019-06-07T08:48:26.916Z,59.92
2019-06-07T08:49:12.879Z,57.95
2019-06-07T08:50:11.924Z,58.52
2019-06-07T08:51:11.880Z,59.36
2019-06-07T08:52:12.625Z,57.72
2019-06-07T08:53:12.561Z,57.78
2019-06-07T08:54:22.462Z,59.96
2019-06-07T08:55:12.835Z,62.07
2019-06-07T08:56:11.929Z,64.21
2019-06-07T08:57:20.435Z,61.87
2019-06-07T08:58:12.781Z,61.81
2019-06-07T08:59:11.872Z,59.88
2019-06-07T09:00:42.190Z,61.54
2019-06-07T09:01:12.747Z,62.54
2019-06-07T09:02:23.351Z,62.57
2019-06-07T09:03:12.728Z,60.74
2019-06-07T09:04:11.713Z,59.66
2019-06-07T09:05:12.723Z,60.10
2019-06-07T09:06:59.547Z,59.29
2019-06-07T09:07:19.643Z,60.49
2019-06-07T09:08:29.318Z,60.39
2019-06-07T09:09:12.655Z,62.50
2019-06-07T09:10:14.381Z,61.90
2019-06-07T09:11:11.776Z,63.10
2019-06-07T09:12:11.899Z,62.60
2019-06-07T09:13:12.188Z,62.00
2019-06-07T09:14:11.603Z,61.00
2019-06-07T09:15:21.595Z,60.93
2019-06-07T09:16:12.599Z,61.72
2019-06-07T09:17:12.590Z,62.67
2019-06-07T09:19:12.567Z,63.14
2019-06-07T09:20:35.048Z,61.81
2019-06-07T09:21:12.522Z,57.23
2019-06-07T09:22:11.846Z,58.03
2019-06-07T09:23:16.857Z,57.20
2019-06-07T09:24:12.512Z,59.05
2019-06-07T09:25:20.757Z,56.05
2019-06-07T09:26:18.164Z,59.30
2019-06-07T09:27:12.458Z,59.01
2019-06-07T09:28:19.122Z,57.68
2019-06-07T09:29:12.444Z,57.68
2019-06-07T09:30:18.388Z,55.04
2019-06-07T09:31:13.022Z,52.84
2019-06-07T09:32:17.773Z,54.21
2019-06-07T09:33:12.454Z,55.41
2019-06-07T09:34:14.888Z,56.55
2019-06-07T09:35:17.317Z,55.23
2019-06-07T09:36:13.485Z,52.74
2019-06-07T09:38:02.991Z,54.36
2019-06-07T09:38:24.278Z,52.19
2019-06-07T09:39:12.813Z,53.29
2019-06-07T09:40:25.035Z,53.69
2019-06-07T09:41:12.297Z,52.72
2019-06-07T09:42:12.672Z,53.02
2019-06-07T09:44:23.869Z,54.74
2019-06-07T09:45:14.024Z,54.24
2019-06-07T09:46:15.414Z,54.31
2019-06-07T09:47:30.650Z,54.68
2019-06-07T09:48:15.917Z,55.08
2019-06-07T09:49:22.884Z,52.97
2019-06-07T09:50:12.702Z,53.24
2019-06-07T09:51:19.146Z,50.48
2019-06-07T09:52:12.177Z,52.89
2019-06-07T09:53:21.717Z,52.42
2019-06-07T09:55:02.667Z,53.22
2019-06-07T09:55:23.501Z,52.94
2019-06-07T09:56:12.460Z,54.88
2019-06-07T09:57:17.105Z,54.75
2019-06-07T09:58:50.504Z,51.45
2019-06-07T09:59:13.058Z,55.46
2019-06-07T10:00:37.134Z,56.90
2019-06-07T10:01:13.675Z,55.18
2019-06-07T10:02:13.667Z,52.97
2019-06-07T10:03:20.050Z,52.47
2019-06-07T10:04:28.503Z,51.40
2019-06-07T10:05:14.138Z,52.76
2019-06-07T10:06:13.541Z,56.40
2019-06-07T10:07:28.848Z,56.08
2019-06-07T10:08:54.623Z,52.09
2019-06-07T10:10:08.723Z,53.09
2019-06-07T10:11:12.009Z,51.97
2019-06-07T10:12:10.960Z,54.28
2019-06-07T10:13:10.950Z,54.51
2019-06-07T10:14:10.937Z,54.71
2019-06-07T10:15:10.930Z,53.69
2019-06-07T10:16:10.919Z,52.32
2019-06-07T10:17:10.930Z,52.62
2019-06-07T10:18:10.895Z,52.51
2019-06-07T10:19:10.887Z,53.11
2019-06-07T10:20:10.874Z,55.28
2019-06-07T10:21:15.064Z,55.18
2019-06-07T10:22:10.906Z,56.18
2019-06-07T10:23:10.839Z,55.04
2019-06-07T10:24:10.867Z,54.49
2019-06-07T10:25:10.818Z,55.16
2019-06-07T10:26:10.811Z,55.69
2019-06-07T10:27:10.823Z,56.91
2019-06-07T10:28:10.786Z,55.51
2019-06-07T10:29:10.776Z,54.36
2019-06-07T10:30:10.805Z,56.66
2019-06-07T10:31:11.420Z,55.79
2019-06-07T10:32:11.302Z,56.48
2019-06-07T10:33:10.801Z,55.24
2019-06-07T10:34:10.965Z,57.67
2019-06-07T10:35:13.850Z,57.37
2019-06-07T10:36:11.697Z,55.82
2019-06-07T10:37:14.405Z,57.82
2019-06-07T10:38:10.790Z,59.45
2019-06-07T10:39:11.364Z,59.15
2019-06-07T10:40:11.332Z,58.98
2019-06-07T10:41:11.146Z,59.61
2019-06-07T10:42:11.642Z,60.81
2019-06-07T10:43:14.276Z,60.48
2019-06-07T10:44:11.471Z,60.18
2019-06-07T10:45:12.281Z,59.68
2019-06-07T10:46:12.068Z,60.18
2019-06-07T10:47:12.098Z,59.92
2019-06-07T10:48:11.700Z,58.49
2019-06-07T10:49:10.554Z,58.76
2019-06-07T10:50:10.548Z,57.34
2019-06-07T10:51:12.522Z,56.41
2019-06-07T10:52:11.618Z,55.02
2019-06-07T10:53:10.807Z,56.29
2019-06-07T10:54:24.538Z,54.59
2019-06-07T10:55:12.642Z,56.18
2019-06-07T10:56:11.087Z,55.36
2019-06-07T10:57:13.835Z,55.13
2019-06-07T10:58:11.453Z,55.06
2019-06-07T10:59:11.923Z,54.96
2019-06-07T11:00:11.654Z,54.53
2019-06-07T11:01:12.826Z,54.74
2019-06-07T11:02:11.932Z,54.66
2019-06-07T11:03:11.722Z,55.04
2019-06-07T11:04:11.641Z,56.40
2019-06-07T11:05:12.134Z,56.21
2019-06-07T11:06:10.369Z,54.81
2019-06-07T11:07:10.388Z,55.61
2019-06-07T11:08:10.435Z,54.71
2019-06-07T11:09:10.330Z,55.21
2019-06-07T11:10:15.676Z,52.22
2019-06-07T11:11:12.259Z,53.99
2019-06-07T11:12:10.857Z,52.62
2019-06-07T11:13:10.481Z,52.55
2019-06-07T11:14:10.645Z,53.27
2019-06-07T11:15:10.975Z,54.64
2019-06-07T11:16:11.190Z,54.34
2019-06-07T11:17:11.325Z,53.11
2019-06-07T11:18:10.407Z,55.31
2019-06-07T11:19:13.946Z,55.41
2019-06-07T11:20:12.436Z,51.72
2019-06-07T11:21:10.273Z,52.74
2019-06-07T11:22:10.256Z,54.64
2019-06-07T11:23:10.193Z,53.86
2019-06-07T11:24:10.260Z,55.24
2019-06-07T11:25:11.128Z,56.51
2019-06-07T11:26:10.352Z,53.29
2019-06-07T11:27:11.657Z,54.38
2019-06-07T11:28:10.602Z,54.79
2019-06-07T11:29:10.884Z,54.75
2019-06-07T11:30:10.620Z,54.75
2019-06-07T11:31:10.720Z,54.16
2019-06-07T11:32:10.582Z,54.26
2019-06-07T11:33:12.011Z,52.92
2019-06-07T11:34:10.489Z,53.14
2019-06-07T11:35:11.682Z,57.26
2019-06-07T11:36:10.675Z,55.81
2019-06-07T11:37:11.677Z,57.04
2019-06-07T11:38:10.561Z,57.74
2019-06-07T11:39:11.094Z,57.34
2019-06-07T11:40:27.932Z,57.97
2019-06-07T11:41:11.593Z,58.00
2019-06-07T11:42:10.007Z,58.00
2019-06-07T11:43:10.780Z,57.09
2019-06-07T11:44:10.977Z,57.87
2019-06-07T11:45:10.745Z,57.76
2019-06-07T11:46:10.965Z,58.76
2019-06-07T11:47:10.507Z,56.94
2019-06-07T11:48:11.255Z,57.07
2019-06-07T11:49:10.840Z,57.34
2019-06-07T11:50:11.584Z,58.64
2019-06-07T11:51:10.812Z,56.94
2019-06-07T11:52:11.335Z,58.41
2019-06-07T11:53:10.756Z,56.79
2019-06-07T11:54:09.839Z,57.58
2019-06-07T11:55:11.361Z,57.09
2019-06-07T11:56:10.359Z,56.96
2019-06-07T11:57:10.898Z,55.76
2019-06-07T11:58:13.392Z,56.85
2019-06-07T11:59:11.211Z,54.57
2019-06-07T12:00:11.132Z,55.36
2019-06-07T12:01:09.844Z,58.03
2019-06-07T12:02:11.317Z,54.86
2019-06-07T12:03:09.736Z,54.96
2019-06-07T12:04:09.731Z,57.28
2019-06-07T12:05:14.486Z,56.88
2019-06-07T12:06:12.039Z,57.06
2019-06-07T12:07:10.817Z,57.15
2019-06-07T12:08:10.043Z,57.61
2019-06-07T12:09:10.634Z,59.08
2019-06-07T12:10:10.798Z,59.35
2019-06-07T12:11:10.116Z,59.08
2019-06-07T12:12:10.335Z,56.88
2019-06-07T12:13:10.435Z,55.79
2019-06-07T12:14:10.965Z,56.88
2019-06-07T12:15:10.916Z,57.18
2019-06-07T12:16:11.145Z,57.09
2019-06-07T12:17:09.609Z,56.38
2019-06-07T12:18:09.574Z,57.78
2019-06-07T12:19:09.840Z,58.55
2019-06-07T12:20:11.364Z,56.76
2019-06-07T12:21:09.655Z,56.59
2019-06-07T12:22:09.829Z,56.71
2019-06-07T12:23:10.023Z,58.28
2019-06-07T12:24:10.322Z,56.18
2019-06-07T12:25:10.341Z,57.35
2019-06-07T12:26:10.263Z,57.26
2019-06-07T12:27:10.327Z,58.45
2019-06-07T12:28:10.677Z,57.15
2019-06-07T12:29:10.703Z,56.56
2019-06-07T12:30:15.398Z,57.56
2019-06-07T12:31:10.856Z,56.36
2019-06-07T12:32:09.412Z,58.33
2019-06-07T12:33:09.424Z,56.90
2019-06-07T12:34:09.390Z,55.36
2019-06-07T12:35:09.378Z,55.66
2019-06-07T12:36:09.369Z,56.88
2019-06-07T12:37:09.357Z,56.68
2019-06-07T12:38:09.373Z,56.91
2019-06-07T12:39:09.333Z,57.68
2019-06-07T12:40:09.744Z,58.08
2019-06-07T12:41:09.311Z,58.78
2019-06-07T12:42:09.305Z,57.98
2019-06-07T12:43:09.305Z,57.98
2019-06-07T12:44:09.285Z,58.58
2019-06-07T12:45:09.268Z,57.58
2019-06-07T12:46:14.305Z,60.68
2019-06-07T12:47:10.276Z,61.35
2019-06-07T12:48:09.273Z,60.25
2019-06-07T12:49:09.225Z,59.42
2019-06-07T12:50:09.212Z,57.33
2019-06-07T12:51:09.201Z,57.86
2019-06-07T12:52:13.647Z,57.09
2019-06-07T12:53:10.202Z,57.68
2019-06-07T12:54:09.167Z,57.88
2019-06-07T12:55:09.161Z,59.18
2019-06-07T12:56:09.154Z,59.75
2019-06-07T12:57:09.141Z,57.65
2019-06-07T12:58:09.152Z,59.05
2019-06-07T12:59:09.112Z,58.95
2019-06-07T13:00:09.104Z,58.88
2019-06-07T13:01:09.091Z,59.38